sensor_id;sensor_type;location;lat;lon;timestamp;pressure;altitude;pressure_sealevel;temperature;humidity
65832;BME280;52593;42.648;23.332;2023-04-10T00:01:10;94634.44;;;6.01;68.54
65832;BME280;52593;42.648;23.332;2023-04-10T00:03:35;94639.91;;;6.00;68.70
65832;BME280;52593;42.648;23.332;2023-04-10T00:06:01;94634.97;;;6.05;68.61
65832;BME280;52593;42.648;23.332;2023-04-10T00:08:27;94638.31;;;6.07;68.37
65832;BME280;52593;42.648;23.332;2023-04-10T00:10:52;94637.94;;;6.02;68.50
65832;BME280;52593;42.648;23.332;2023-04-10T00:13:19;94645.75;;;6.03;67.56
65832;BME280;52593;42.648;23.332;2023-04-10T00:15:44;94629.81;;;6.03;67.31
65832;BME280;52593;42.648;23.332;2023-04-10T00:18:10;94632.16;;;6.06;66.86
65832;BME280;52593;42.648;23.332;2023-04-10T00:20:36;94614.50;;;5.97;66.86
65832;BME280;52593;42.648;23.332;2023-04-10T00:23:01;94620.47;;;5.99;66.84
65832;BME280;52593;42.648;23.332;2023-04-10T00:25:27;94618.81;;;5.98;67.21
65832;BME280;52593;42.648;23.332;2023-04-10T00:27:53;94623.56;;;5.95;66.91
65832;BME280;52593;42.648;23.332;2023-04-10T00:30:19;94625.66;;;5.91;67.30
65832;BME280;52593;42.648;23.332;2023-04-10T00:32:45;94616.38;;;5.87;67.51
65832;BME280;52593;42.648;23.332;2023-04-10T00:35:10;94601.34;;;5.78;67.52
65832;BME280;52593;42.648;23.332;2023-04-10T00:37:36;94617.28;;;5.96;67.43
65832;BME280;52593;42.648;23.332;2023-04-10T00:40:02;94611.25;;;5.94;67.14
65832;BME280;52593;42.648;23.332;2023-04-10T00:42:28;94621.47;;;5.98;66.67
65832;BME280;52593;42.648;23.332;2023-04-10T00:44:53;94620.09;;;5.94;67.11
65832;BME280;52593;42.648;23.332;2023-04-10T00:47:19;94614.38;;;5.89;67.47
65832;BME280;52593;42.648;23.332;2023-04-10T00:49:45;94624.84;;;5.90;67.23
65832;BME280;52593;42.648;23.332;2023-04-10T00:52:10;94603.47;;;5.74;68.06
65832;BME280;52593;42.648;23.332;2023-04-10T00:54:36;94605.91;;;5.67;68.38
65832;BME280;52593;42.648;23.332;2023-04-10T00:57:02;94619.22;;;5.76;68.10
65832;BME280;52593;42.648;23.332;2023-04-10T00:59:29;94606.09;;;5.74;67.48
65832;BME280;52593;42.648;23.332;2023-04-10T01:01:54;94619.47;;;5.82;68.13
65832;BME280;52593;42.648;23.332;2023-04-10T01:04:21;94598.53;;;5.79;67.29
65832;BME280;52593;42.648;23.332;2023-04-10T01:06:53;94609.69;;;5.83;67.44
65832;BME280;52593;42.648;23.332;2023-04-10T01:09:47;94601.97;;;5.71;67.52
65832;BME280;52593;42.648;23.332;2023-04-10T01:15:07;94592.63;;;5.85;66.84
65832;BME280;52593;42.648;23.332;2023-04-10T01:20:11;94595.13;;;5.87;65.78
65832;BME280;52593;42.648;23.332;2023-04-10T01:22:56;94598.91;;;5.84;66.18
65832;BME280;52593;42.648;23.332;2023-04-10T01:26:02;94611.22;;;5.85;66.34
65832;BME280;52593;42.648;23.332;2023-04-10T01:31:19;94606.06;;;5.84;65.78
65832;BME280;52593;42.648;23.332;2023-04-10T01:33:48;94597.31;;;5.74;66.57
65832;BME280;52593;42.648;23.332;2023-04-10T01:36:22;94600.75;;;5.84;66.28
65832;BME280;52593;42.648;23.332;2023-04-10T01:38:49;94597.84;;;5.77;67.26
65832;BME280;52593;42.648;23.332;2023-04-10T01:41:17;94587.91;;;5.79;66.84
65832;BME280;52593;42.648;23.332;2023-04-10T01:43:46;94598.38;;;5.81;66.80
65832;BME280;52593;42.648;23.332;2023-04-10T01:46:13;94610.75;;;5.90;67.02
65832;BME280;52593;42.648;23.332;2023-04-10T01:48:38;94600.13;;;5.90;67.00
65832;BME280;52593;42.648;23.332;2023-04-10T01:51:05;94593.13;;;5.89;66.89
65832;BME280;52593;42.648;23.332;2023-04-10T01:53:32;94598.28;;;5.90;67.41
65832;BME280;52593;42.648;23.332;2023-04-10T01:55:59;94596.91;;;5.86;67.43
65832;BME280;52593;42.648;23.332;2023-04-10T01:58:26;94585.63;;;5.84;66.97
65832;BME280;52593;42.648;23.332;2023-04-10T02:00:52;94600.94;;;5.90;66.96
65832;BME280;52593;42.648;23.332;2023-04-10T02:03:17;94595.78;;;5.89;66.41
65832;BME280;52593;42.648;23.332;2023-04-10T02:09:04;94593.38;;;5.96;66.44
65832;BME280;52593;42.648;23.332;2023-04-10T02:11:51;94592.66;;;5.94;67.33
65832;BME280;52593;42.648;23.332;2023-04-10T02:14:20;94580.53;;;5.91;67.21
65832;BME280;52593;42.648;23.332;2023-04-10T02:16:48;94582.16;;;5.84;67.95
65832;BME280;52593;42.648;23.332;2023-04-10T02:19:15;94581.84;;;5.87;68.34
65832;BME280;52593;42.648;23.332;2023-04-10T02:21:42;94574.22;;;5.92;68.30
65832;BME280;52593;42.648;23.332;2023-04-10T02:24:07;94569.63;;;5.94;68.05
65832;BME280;52593;42.648;23.332;2023-04-10T02:26:51;94568.19;;;6.00;67.91
65832;BME280;52593;42.648;23.332;2023-04-10T02:29:17;94572.06;;;6.05;67.82
65832;BME280;52593;42.648;23.332;2023-04-10T02:31:43;94562.03;;;5.99;68.00
65832;BME280;52593;42.648;23.332;2023-04-10T02:34:10;94550.78;;;5.87;68.25
65832;BME280;52593;42.648;23.332;2023-04-10T02:36:36;94561.56;;;5.86;68.39
65832;BME280;52593;42.648;23.332;2023-04-10T02:39:03;94563.56;;;5.84;68.76
65832;BME280;52593;42.648;23.332;2023-04-10T02:41:28;94559.59;;;5.88;68.64
65832;BME280;52593;42.648;23.332;2023-04-10T02:43:54;94554.44;;;5.86;69.19
65832;BME280;52593;42.648;23.332;2023-04-10T02:46:19;94553.44;;;5.87;69.29
65832;BME280;52593;42.648;23.332;2023-04-10T02:48:45;94542.97;;;5.86;69.23
65832;BME280;52593;42.648;23.332;2023-04-10T02:51:10;94546.63;;;5.85;69.33
65832;BME280;52593;42.648;23.332;2023-04-10T02:53:36;94541.78;;;5.80;69.88
65832;BME280;52593;42.648;23.332;2023-04-10T02:56:01;94553.91;;;5.83;70.41
65832;BME280;52593;42.648;23.332;2023-04-10T02:58:27;94536.94;;;5.76;70.19
65832;BME280;52593;42.648;23.332;2023-04-10T03:00:54;94539.66;;;5.84;70.64
65832;BME280;52593;42.648;23.332;2023-04-10T03:03:20;94540.28;;;5.78;70.56
65832;BME280;52593;42.648;23.332;2023-04-10T03:05:46;94530.31;;;5.80;70.80
65832;BME280;52593;42.648;23.332;2023-04-10T03:08:14;94543.28;;;5.83;70.36
65832;BME280;52593;42.648;23.332;2023-04-10T03:10:39;94545.34;;;5.89;70.38
65832;BME280;52593;42.648;23.332;2023-04-10T03:13:07;94533.88;;;5.88;69.70
65832;BME280;52593;42.648;23.332;2023-04-10T03:15:32;94535.31;;;5.83;69.93
65832;BME280;52593;42.648;23.332;2023-04-10T03:17:58;94541.09;;;5.78;70.46
65832;BME280;52593;42.648;23.332;2023-04-10T03:20:23;94549.91;;;5.79;70.78
65832;BME280;52593;42.648;23.332;2023-04-10T03:22:49;94546.06;;;5.73;70.78
65832;BME280;52593;42.648;23.332;2023-04-10T03:25:15;94535.34;;;5.65;71.14
65832;BME280;52593;42.648;23.332;2023-04-10T03:27:40;94538.78;;;5.57;71.87
65832;BME280;52593;42.648;23.332;2023-04-10T03:30:06;94555.56;;;5.58;71.57
65832;BME280;52593;42.648;23.332;2023-04-10T03:32:32;94550.56;;;5.54;72.14
65832;BME280;52593;42.648;23.332;2023-04-10T03:34:57;94539.63;;;5.40;72.11
65832;BME280;52593;42.648;23.332;2023-04-10T03:37:23;94534.84;;;5.43;72.26
65832;BME280;52593;42.648;23.332;2023-04-10T03:39:49;94539.84;;;5.46;72.30
65832;BME280;52593;42.648;23.332;2023-04-10T03:42:15;94553.25;;;5.45;72.94
65832;BME280;52593;42.648;23.332;2023-04-10T03:44:40;94555.41;;;5.59;72.22
65832;BME280;52593;42.648;23.332;2023-04-10T03:47:05;94553.25;;;5.45;71.95
65832;BME280;52593;42.648;23.332;2023-04-10T03:49:31;94544.63;;;5.43;72.63
65832;BME280;52593;42.648;23.332;2023-04-10T03:51:56;94561.38;;;5.43;73.04
65832;BME280;52593;42.648;23.332;2023-04-10T03:54:21;94548.88;;;5.35;73.18
65832;BME280;52593;42.648;23.332;2023-04-10T03:56:47;94562.81;;;5.56;72.56
65832;BME280;52593;42.648;23.332;2023-04-10T03:59:12;94560.72;;;5.59;71.79
65832;BME280;52593;42.648;23.332;2023-04-10T04:01:37;94569.84;;;5.65;72.01
65832;BME280;52593;42.648;23.332;2023-04-10T04:04:04;94568.22;;;5.64;71.92
65832;BME280;52593;42.648;23.332;2023-04-10T04:06:29;94572.50;;;5.65;72.34
65832;BME280;52593;42.648;23.332;2023-04-10T04:08:55;94577.00;;;5.64;72.27
65832;BME280;52593;42.648;23.332;2023-04-10T04:11:20;94562.59;;;5.67;71.93
65832;BME280;52593;42.648;23.332;2023-04-10T04:13:46;94571.75;;;5.72;72.39
65832;BME280;52593;42.648;23.332;2023-04-10T04:16:11;94577.75;;;5.75;72.49
65832;BME280;52593;42.648;23.332;2023-04-10T04:18:37;94569.50;;;5.78;72.04
65832;BME280;52593;42.648;23.332;2023-04-10T04:21:02;94572.38;;;5.66;72.30
65832;BME280;52593;42.648;23.332;2023-04-10T04:23:27;94587.09;;;5.61;73.73
65832;BME280;52593;42.648;23.332;2023-04-10T04:25:53;94583.59;;;5.60;73.85
65832;BME280;52593;42.648;23.332;2023-04-10T04:28:20;94576.38;;;5.52;73.65
65832;BME280;52593;42.648;23.332;2023-04-10T04:30:46;94590.13;;;5.48;74.55
65832;BME280;52593;42.648;23.332;2023-04-10T04:33:11;94580.25;;;5.58;73.69
65832;BME280;52593;42.648;23.332;2023-04-10T04:35:36;94583.91;;;5.57;74.12
65832;BME280;52593;42.648;23.332;2023-04-10T04:38:02;94586.03;;;5.71;73.42
65832;BME280;52593;42.648;23.332;2023-04-10T04:40:27;94581.03;;;5.68;73.34
65832;BME280;52593;42.648;23.332;2023-04-10T04:42:52;94595.50;;;5.74;73.82
65832;BME280;52593;42.648;23.332;2023-04-10T04:45:18;94585.47;;;5.68;73.48
65832;BME280;52593;42.648;23.332;2023-04-10T04:47:46;94601.09;;;5.71;73.78
65832;BME280;52593;42.648;23.332;2023-04-10T04:50:11;94594.06;;;5.80;73.64
65832;BME280;52593;42.648;23.332;2023-04-10T04:52:36;94598.09;;;5.84;73.48
65832;BME280;52593;42.648;23.332;2023-04-10T04:55:02;94602.69;;;5.82;73.70
65832;BME280;52593;42.648;23.332;2023-04-10T04:57:27;94605.75;;;5.87;73.40
65832;BME280;52593;42.648;23.332;2023-04-10T04:59:53;94597.03;;;5.77;73.51
65832;BME280;52593;42.648;23.332;2023-04-10T05:02:18;94601.41;;;5.68;73.66
65832;BME280;52593;42.648;23.332;2023-04-10T05:04:46;94609.47;;;5.76;74.30
65832;BME280;52593;42.648;23.332;2023-04-10T05:07:12;94608.63;;;5.76;74.30
65832;BME280;52593;42.648;23.332;2023-04-10T05:09:37;94608.41;;;5.69;74.75
65832;BME280;52593;42.648;23.332;2023-04-10T05:12:02;94608.25;;;5.70;74.68
65832;BME280;52593;42.648;23.332;2023-04-10T05:14:28;94607.63;;;5.77;74.92
65832;BME280;52593;42.648;23.332;2023-04-10T05:16:53;94611.28;;;5.76;75.13
65832;BME280;52593;42.648;23.332;2023-04-10T05:19:19;94608.31;;;5.79;75.03
65832;BME280;52593;42.648;23.332;2023-04-10T05:21:45;94601.03;;;5.81;74.88
65832;BME280;52593;42.648;23.332;2023-04-10T05:24:10;94599.81;;;5.75;75.30
65832;BME280;52593;42.648;23.332;2023-04-10T05:26:36;94610.81;;;5.80;75.51
65832;BME280;52593;42.648;23.332;2023-04-10T05:29:01;94600.75;;;5.84;75.58
65832;BME280;52593;42.648;23.332;2023-04-10T05:31:27;94604.00;;;5.96;74.77
65832;BME280;52593;42.648;23.332;2023-04-10T05:33:52;94612.28;;;5.93;74.63
65832;BME280;52593;42.648;23.332;2023-04-10T05:36:17;94593.09;;;5.99;74.27
65832;BME280;52593;42.648;23.332;2023-04-10T05:38:43;94601.47;;;6.12;73.17
65832;BME280;52593;42.648;23.332;2023-04-10T05:41:08;94598.31;;;6.09;73.00
65832;BME280;52593;42.648;23.332;2023-04-10T05:43:33;94609.72;;;6.27;72.86
65832;BME280;52593;42.648;23.332;2023-04-10T05:45:59;94609.38;;;6.22;73.16
65832;BME280;52593;42.648;23.332;2023-04-10T05:48:24;94607.38;;;6.24;72.94
65832;BME280;52593;42.648;23.332;2023-04-10T05:50:51;94606.25;;;6.27;72.87
65832;BME280;52593;42.648;23.332;2023-04-10T05:53:18;94613.47;;;6.42;73.33
65832;BME280;52593;42.648;23.332;2023-04-10T05:55:43;94614.69;;;6.48;71.99
65832;BME280;52593;42.648;23.332;2023-04-10T05:58:09;94614.72;;;6.56;72.15
65832;BME280;52593;42.648;23.332;2023-04-10T06:00:34;94618.28;;;6.65;72.61
65832;BME280;52593;42.648;23.332;2023-04-10T06:03:01;94615.59;;;6.65;72.19
65832;BME280;52593;42.648;23.332;2023-04-10T06:05:27;94618.63;;;6.70;72.13
65832;BME280;52593;42.648;23.332;2023-04-10T06:07:52;94611.69;;;6.77;71.31
65832;BME280;52593;42.648;23.332;2023-04-10T06:10:18;94615.41;;;6.93;70.91
65832;BME280;52593;42.648;23.332;2023-04-10T06:12:43;94604.09;;;6.91;71.50
65832;BME280;52593;42.648;23.332;2023-04-10T06:15:10;94606.44;;;6.94;71.05
65832;BME280;52593;42.648;23.332;2023-04-10T06:17:41;94610.47;;;7.06;70.86
65832;BME280;52593;42.648;23.332;2023-04-10T06:20:08;94600.19;;;7.20;69.65
65832;BME280;52593;42.648;23.332;2023-04-10T06:22:33;94595.03;;;7.10;70.37
65832;BME280;52593;42.648;23.332;2023-04-10T06:24:58;94600.84;;;7.13;70.31
65832;BME280;52593;42.648;23.332;2023-04-10T06:27:24;94615.38;;;7.27;70.26
65832;BME280;52593;42.648;23.332;2023-04-10T06:29:50;94603.56;;;7.30;69.28
65832;BME280;52593;42.648;23.332;2023-04-10T06:32:15;94608.56;;;7.25;69.68
65832;BME280;52593;42.648;23.332;2023-04-10T06:34:40;94602.53;;;7.23;69.93
65832;BME280;52593;42.648;23.332;2023-04-10T06:37:06;94608.06;;;7.38;69.38
65832;BME280;52593;42.648;23.332;2023-04-10T06:39:31;94602.78;;;7.54;69.26
65832;BME280;52593;42.648;23.332;2023-04-10T06:41:56;94601.66;;;7.65;68.23
65832;BME280;52593;42.648;23.332;2023-04-10T06:44:22;94618.13;;;7.68;68.08
65832;BME280;52593;42.648;23.332;2023-04-10T06:46:47;94608.97;;;7.63;67.83
65832;BME280;52593;42.648;23.332;2023-04-10T06:49:13;94612.97;;;7.67;68.30
65832;BME280;52593;42.648;23.332;2023-04-10T06:51:38;94606.47;;;7.61;67.70
65832;BME280;52593;42.648;23.332;2023-04-10T06:54:03;94611.16;;;7.67;67.83
65832;BME280;52593;42.648;23.332;2023-04-10T06:56:29;94607.13;;;7.72;67.27
65832;BME280;52593;42.648;23.332;2023-04-10T06:58:54;94621.81;;;7.84;67.50
65832;BME280;52593;42.648;23.332;2023-04-10T07:01:20;94615.31;;;7.78;66.91
65832;BME280;52593;42.648;23.332;2023-04-10T07:03:45;94621.16;;;7.74;66.80
65832;BME280;52593;42.648;23.332;2023-04-10T07:06:11;94621.97;;;7.74;66.81
65832;BME280;52593;42.648;23.332;2023-04-10T07:08:36;94624.97;;;7.96;66.24
65832;BME280;52593;42.648;23.332;2023-04-10T07:11:02;94618.16;;;8.01;66.25
65832;BME280;52593;42.648;23.332;2023-04-10T07:13:27;94619.50;;;8.06;66.11
65832;BME280;52593;42.648;23.332;2023-04-10T07:15:53;94617.47;;;7.75;66.17
65832;BME280;52593;42.648;23.332;2023-04-10T07:18:18;94618.16;;;7.77;66.39
65832;BME280;52593;42.648;23.332;2023-04-10T07:20:43;94610.97;;;7.85;66.58
65832;BME280;52593;42.648;23.332;2023-04-10T07:23:09;94622.81;;;7.83;66.81
65832;BME280;52593;42.648;23.332;2023-04-10T07:25:34;94619.13;;;7.67;67.44
65832;BME280;52593;42.648;23.332;2023-04-10T07:28:00;94627.13;;;7.84;66.49
65832;BME280;52593;42.648;23.332;2023-04-10T07:30:25;94611.31;;;7.74;67.13
65832;BME280;52593;42.648;23.332;2023-04-10T07:32:51;94627.81;;;7.86;66.75
65832;BME280;52593;42.648;23.332;2023-04-10T07:35:16;94628.81;;;7.85;66.95
65832;BME280;52593;42.648;23.332;2023-04-10T07:37:41;94625.66;;;7.90;66.12
65832;BME280;52593;42.648;23.332;2023-04-10T07:40:08;94628.50;;;8.04;65.25
65832;BME280;52593;42.648;23.332;2023-04-10T07:42:35;94622.00;;;8.07;66.26
65832;BME280;52593;42.648;23.332;2023-04-10T07:45:00;94624.81;;;7.97;66.00
65832;BME280;52593;42.648;23.332;2023-04-10T07:47:26;94623.31;;;8.11;66.57
65832;BME280;52593;42.648;23.332;2023-04-10T07:49:51;94634.97;;;8.02;66.62
65832;BME280;52593;42.648;23.332;2023-04-10T07:52:17;94632.66;;;8.07;66.28
65832;BME280;52593;42.648;23.332;2023-04-10T07:54:42;94634.16;;;8.18;65.85
65832;BME280;52593;42.648;23.332;2023-04-10T07:57:07;94627.81;;;8.35;64.73
65832;BME280;52593;42.648;23.332;2023-04-10T07:59:33;94635.16;;;8.33;65.55
65832;BME280;52593;42.648;23.332;2023-04-10T08:01:58;94625.34;;;8.26;65.22
65832;BME280;52593;42.648;23.332;2023-04-10T08:04:24;94620.16;;;8.32;65.52
65832;BME280;52593;42.648;23.332;2023-04-10T08:06:49;94610.66;;;8.54;64.43
65832;BME280;52593;42.648;23.332;2023-04-10T08:09:15;94627.47;;;8.71;63.89
65832;BME280;52593;42.648;23.332;2023-04-10T08:11:40;94616.97;;;8.62;63.94
65832;BME280;52593;42.648;23.332;2023-04-10T08:14:06;94613.31;;;8.54;63.84
65832;BME280;52593;42.648;23.332;2023-04-10T08:16:33;94622.00;;;8.48;64.24
65832;BME280;52593;42.648;23.332;2023-04-10T08:19:00;94611.81;;;8.60;63.96
65832;BME280;52593;42.648;23.332;2023-04-10T08:21:26;94630.81;;;8.73;63.52
65832;BME280;52593;42.648;23.332;2023-04-10T08:23:56;94625.91;;;8.93;63.24
65832;BME280;52593;42.648;23.332;2023-04-10T08:26:22;94615.69;;;9.05;63.15
65832;BME280;52593;42.648;23.332;2023-04-10T08:28:50;94625.34;;;9.06;63.28
65832;BME280;52593;42.648;23.332;2023-04-10T08:31:19;94619.66;;;9.09;62.56
65832;BME280;52593;42.648;23.332;2023-04-10T08:33:45;94616.56;;;8.98;62.45
65832;BME280;52593;42.648;23.332;2023-04-10T08:36:11;94618.69;;;9.10;62.66
65832;BME280;52593;42.648;23.332;2023-04-10T08:38:46;94622.41;;;8.93;62.75
65832;BME280;52593;42.648;23.332;2023-04-10T08:41:13;94615.28;;;8.77;63.05
65832;BME280;52593;42.648;23.332;2023-04-10T08:43:39;94613.31;;;8.54;63.92
65832;BME280;52593;42.648;23.332;2023-04-10T08:46:05;94628.59;;;8.85;63.88
65832;BME280;52593;42.648;23.332;2023-04-10T08:48:39;94617.78;;;8.87;63.61
65832;BME280;52593;42.648;23.332;2023-04-10T08:51:09;94614.66;;;9.15;62.03
65832;BME280;52593;42.648;23.332;2023-04-10T08:53:39;94618.47;;;9.20;62.66
65832;BME280;52593;42.648;23.332;2023-04-10T08:56:11;94612.28;;;9.20;63.10
65832;BME280;52593;42.648;23.332;2023-04-10T08:58:36;94625.13;;;9.24;62.66
65832;BME280;52593;42.648;23.332;2023-04-10T09:01:04;94608.16;;;9.09;61.61
65832;BME280;52593;42.648;23.332;2023-04-10T09:03:29;94609.56;;;8.97;62.61
65832;BME280;52593;42.648;23.332;2023-04-10T09:05:55;94604.09;;;8.90;63.50
65832;BME280;52593;42.648;23.332;2023-04-10T09:08:21;94603.91;;;8.91;63.28
65832;BME280;52593;42.648;23.332;2023-04-10T09:10:46;94614.41;;;8.85;62.58
65832;BME280;52593;42.648;23.332;2023-04-10T09:13:11;94609.50;;;9.05;62.30
65832;BME280;52593;42.648;23.332;2023-04-10T09:15:57;94594.66;;;9.10;61.63
65832;BME280;52593;42.648;23.332;2023-04-10T09:18:39;94604.44;;;9.26;61.31
65832;BME280;52593;42.648;23.332;2023-04-10T09:21:06;94601.91;;;9.33;61.22
65832;BME280;52593;42.648;23.332;2023-04-10T09:23:32;94596.84;;;9.07;61.56
65832;BME280;52593;42.648;23.332;2023-04-10T09:25:57;94594.09;;;8.84;62.81
65832;BME280;52593;42.648;23.332;2023-04-10T09:28:22;94594.34;;;9.05;61.46
65832;BME280;52593;42.648;23.332;2023-04-10T09:30:48;94598.59;;;9.23;62.13
65832;BME280;52593;42.648;23.332;2023-04-10T09:33:26;94598.81;;;9.13;62.13
65832;BME280;52593;42.648;23.332;2023-04-10T09:35:52;94588.16;;;9.05;61.65
65832;BME280;52593;42.648;23.332;2023-04-10T09:38:19;94593.59;;;9.20;60.84
65832;BME280;52593;42.648;23.332;2023-04-10T09:40:46;94587.22;;;8.98;62.04
65832;BME280;52593;42.648;23.332;2023-04-10T09:43:25;94584.22;;;8.92;62.73
65832;BME280;52593;42.648;23.332;2023-04-10T09:45:55;94593.84;;;9.02;63.14
65832;BME280;52593;42.648;23.332;2023-04-10T09:48:22;94595.56;;;8.95;64.71
65832;BME280;52593;42.648;23.332;2023-04-10T09:50:48;94589.38;;;8.94;64.95
65832;BME280;52593;42.648;23.332;2023-04-10T09:53:18;94581.00;;;9.05;64.77
65832;BME280;52593;42.648;23.332;2023-04-10T09:55:46;94590.88;;;8.97;64.17
65832;BME280;52593;42.648;23.332;2023-04-10T09:58:12;94589.31;;;9.10;64.55
65832;BME280;52593;42.648;23.332;2023-04-10T10:00:43;94578.59;;;9.19;63.67
65832;BME280;52593;42.648;23.332;2023-04-10T10:03:17;94569.78;;;9.41;62.40
65832;BME280;52593;42.648;23.332;2023-04-10T10:05:49;94577.56;;;9.28;62.29
65832;BME280;52593;42.648;23.332;2023-04-10T10:08:16;94584.94;;;9.49;60.87
65832;BME280;52593;42.648;23.332;2023-04-10T10:10:50;94578.69;;;9.65;60.07
65832;BME280;52593;42.648;23.332;2023-04-10T10:13:22;94566.25;;;9.49;59.53
65832;BME280;52593;42.648;23.332;2023-04-10T10:21:03;94562.75;;;9.72;57.15
65832;BME280;52593;42.648;23.332;2023-04-10T10:23:30;94568.94;;;9.72;57.83
65832;BME280;52593;42.648;23.332;2023-04-10T10:25:57;94562.50;;;9.81;57.00
65832;BME280;52593;42.648;23.332;2023-04-10T10:28:24;94555.16;;;9.84;56.89
65832;BME280;52593;42.648;23.332;2023-04-10T10:30:52;94554.31;;;9.83;56.06
65832;BME280;52593;42.648;23.332;2023-04-10T10:33:19;94560.50;;;10.07;55.54
65832;BME280;52593;42.648;23.332;2023-04-10T10:35:45;94547.53;;;10.18;54.49
65832;BME280;52593;42.648;23.332;2023-04-10T10:38:11;94544.72;;;10.12;53.83
65832;BME280;52593;42.648;23.332;2023-04-10T10:44:16;94535.53;;;10.14;54.62
65832;BME280;52593;42.648;23.332;2023-04-10T10:46:34;94534.41;;;10.47;53.69
65832;BME280;52593;42.648;23.332;2023-04-10T10:49:02;94508.09;;;10.50;52.78
65832;BME280;52593;42.648;23.332;2023-04-10T10:51:48;94514.75;;;10.55;53.29
65832;BME280;52593;42.648;23.332;2023-04-10T10:54:33;94519.72;;;10.43;53.87
65832;BME280;52593;42.648;23.332;2023-04-10T10:57:00;94515.19;;;10.28;54.09
65832;BME280;52593;42.648;23.332;2023-04-10T11:02:17;94508.84;;;10.44;53.55
65832;BME280;52593;42.648;23.332;2023-04-10T11:04:47;94495.50;;;11.47;50.96
65832;BME280;52593;42.648;23.332;2023-04-10T11:07:13;94491.47;;;11.94;48.86
65832;BME280;52593;42.648;23.332;2023-04-10T11:10:05;94481.09;;;12.48;46.96
65832;BME280;52593;42.648;23.332;2023-04-10T11:15:35;94484.22;;;12.52;47.66
65832;BME280;52593;42.648;23.332;2023-04-10T11:18:01;94481.03;;;12.70;46.55
65832;BME280;52593;42.648;23.332;2023-04-10T11:20:26;94481.13;;;12.20;47.42
65832;BME280;52593;42.648;23.332;2023-04-10T11:23:11;94478.47;;;11.33;48.98
65832;BME280;52593;42.648;23.332;2023-04-10T11:26:03;94480.53;;;10.80;50.22
65832;BME280;52593;42.648;23.332;2023-04-10T11:33:38;94475.69;;;10.30;51.32
65832;BME280;52593;42.648;23.332;2023-04-10T11:36:03;94482.06;;;10.14;52.96
65832;BME280;52593;42.648;23.332;2023-04-10T11:38:30;94482.56;;;9.57;56.47
65832;BME280;52593;42.648;23.332;2023-04-10T11:41:01;94481.81;;;9.48;57.85
65832;BME280;52593;42.648;23.332;2023-04-10T11:43:28;94480.56;;;9.59;56.77
65832;BME280;52593;42.648;23.332;2023-04-10T11:46:04;94481.28;;;9.68;56.33
65832;BME280;52593;42.648;23.332;2023-04-10T11:48:31;94487.19;;;10.01;57.94
65832;BME280;52593;42.648;23.332;2023-04-10T11:50:57;94481.13;;;10.22;55.13
65832;BME280;52593;42.648;23.332;2023-04-10T11:53:24;94464.66;;;10.48;53.12
65832;BME280;52593;42.648;23.332;2023-04-10T11:55:50;94475.44;;;10.70;51.63
65832;BME280;52593;42.648;23.332;2023-04-10T11:58:26;94475.38;;;10.78;51.69
65832;BME280;52593;42.648;23.332;2023-04-10T12:00:59;94465.59;;;10.70;52.14
65832;BME280;52593;42.648;23.332;2023-04-10T12:03:38;94477.28;;;10.40;53.21
65832;BME280;52593;42.648;23.332;2023-04-10T12:06:12;94466.94;;;10.22;53.52
65832;BME280;52593;42.648;23.332;2023-04-10T12:08:40;94458.25;;;10.20;53.14
65832;BME280;52593;42.648;23.332;2023-04-10T12:11:08;94458.66;;;10.31;53.40
65832;BME280;52593;42.648;23.332;2023-04-10T12:13:34;94449.97;;;10.14;52.52
65832;BME280;52593;42.648;23.332;2023-04-10T12:16:02;94460.06;;;10.42;53.18
65832;BME280;52593;42.648;23.332;2023-04-10T12:18:29;94471.41;;;10.44;53.07
65832;BME280;52593;42.648;23.332;2023-04-10T12:20:56;94469.78;;;10.05;56.09
65832;BME280;52593;42.648;23.332;2023-04-10T12:23:23;94474.16;;;9.83;58.46
65832;BME280;52593;42.648;23.332;2023-04-10T12:25:49;94488.06;;;9.55;60.73
65832;BME280;52593;42.648;23.332;2023-04-10T12:28:20;94501.94;;;9.27;61.33
65832;BME280;52593;42.648;23.332;2023-04-10T12:30:50;94496.94;;;8.70;63.48
65832;BME280;52593;42.648;23.332;2023-04-10T12:33:20;94493.34;;;8.38;65.83
65832;BME280;52593;42.648;23.332;2023-04-10T12:35:46;94497.75;;;8.06;69.05
65832;BME280;52593;42.648;23.332;2023-04-10T12:38:11;94496.38;;;8.18;70.43
65832;BME280;52593;42.648;23.332;2023-04-10T12:40:37;94494.44;;;8.04;70.71
65832;BME280;52593;42.648;23.332;2023-04-10T12:43:04;94490.94;;;7.79;71.50
65832;BME280;52593;42.648;23.332;2023-04-10T12:45:43;94490.63;;;7.74;71.36
65832;BME280;52593;42.648;23.332;2023-04-10T12:48:09;94479.13;;;7.81;70.90
65832;BME280;52593;42.648;23.332;2023-04-10T12:50:46;94492.97;;;7.93;69.93
65832;BME280;52593;42.648;23.332;2023-04-10T12:53:14;94475.44;;;8.07;67.52
65832;BME280;52593;42.648;23.332;2023-04-10T12:55:40;94491.72;;;8.29;64.71
65832;BME280;52593;42.648;23.332;2023-04-10T12:58:17;94477.00;;;8.49;62.57
65832;BME280;52593;42.648;23.332;2023-04-10T13:00:47;94473.88;;;9.08;62.25
65832;BME280;52593;42.648;23.332;2023-04-10T13:03:12;94479.50;;;9.83;59.79
65832;BME280;52593;42.648;23.332;2023-04-10T13:05:38;94473.63;;;10.03;57.72
65832;BME280;52593;42.648;23.332;2023-04-10T13:08:03;94473.50;;;9.81;59.04
65832;BME280;52593;42.648;23.332;2023-04-10T13:10:28;94468.03;;;9.97;58.70
65832;BME280;52593;42.648;23.332;2023-04-10T13:12:54;94473.91;;;9.93;60.11
65832;BME280;52593;42.648;23.332;2023-04-10T13:15:20;94466.56;;;10.10;58.86
65832;BME280;52593;42.648;23.332;2023-04-10T13:17:45;94466.66;;;10.31;58.92
65832;BME280;52593;42.648;23.332;2023-04-10T13:20:11;94459.59;;;9.86;58.98
65832;BME280;52593;42.648;23.332;2023-04-10T13:22:37;94459.38;;;9.95;57.94
65832;BME280;52593;42.648;23.332;2023-04-10T13:25:03;94447.78;;;10.33;57.15
65832;BME280;52593;42.648;23.332;2023-04-10T13:27:29;94439.28;;;10.74;56.93
65832;BME280;52593;42.648;23.332;2023-04-10T13:29:54;94436.66;;;11.82;54.07
65832;BME280;52593;42.648;23.332;2023-04-10T13:32:20;94428.78;;;12.72;51.61